Time;durP1;ratioP1;P1;durP2;ratioP2;P2;SDS_P1;SDS_P2;PMS_P1;PMS_P2;Temp;Humidity;BMP_temperature;BMP_pressure;BME280_temperature;BME280_humidity;BME280_pressure;Samples;Min_cycle;Max_cycle;Signal;HPM_P1;HPM_P2
2022/09/13 00:01:35;;;;;;;3.55;3.33;;;;;;;12.71;100.00;99432.73;1701509;82;21020;-70
2022/09/13 00:04:03;;;;;;;3.33;3.02;;;;;;;12.71;100.00;99425.52;1693148;83;21553;-70
2022/09/13 00:06:29;;;;;;;3.30;3.00;;;;;;;12.72;100.00;99423.69;1689269;84;21488;-69
2022/09/13 00:08:57;;;;;;;3.42;3.20;;;;;;;12.71;100.00;99421.52;1690234;83;21492;-69
2022/09/13 00:11:27;;;;;;;3.37;3.00;;;;;;;12.72;100.00;99423.69;1682105;83;21059;-69
2022/09/13 00:13:56;;;;;;;2.87;2.72;;;;;;;12.73;100.00;99418.62;1671650;83;21087;-70
2022/09/13 00:16:26;;;;;;;4.58;3.90;;;;;;;12.73;100.00;99418.62;1676423;85;21011;-69
2022/09/13 00:18:54;;;;;;;4.83;3.02;;;;;;;12.76;100.00;99418.19;1671061;85;21012;-69
2022/09/13 00:21:23;;;;;;;4.28;3.95;;;;;;;12.75;100.00;99413.86;1620943;86;20968;-68
2022/09/13 00:23:52;;;;;;;5.53;4.53;;;;;;;12.79;100.00;99417.71;1687716;84;21097;-69
2022/09/13 00:26:25;;;;;;;5.47;4.95;;;;;;;12.82;100.00;99417.27;1685121;84;21502;-69
2022/09/13 00:28:55;;;;;;;5.03;4.55;;;;;;;12.82;100.00;99413.27;1691506;84;21495;-69
2022/09/13 00:31:23;;;;;;;5.65;5.15;;;;;;;12.79;100.00;99413.20;1683235;84;21062;-68
2022/09/13 00:33:50;;;;;;;6.83;6.22;;;;;;;12.76;100.00;99412.30;1703642;83;21616;-68
2022/09/13 00:36:16;;;;;;;7.03;6.00;;;;;;;12.71;100.00;99416.16;1694337;84;21010;-68
2022/09/13 00:38:43;;;;;;;8.00;7.20;;;;;;;12.70;100.00;99421.23;1687974;84;21014;-68
2022/09/13 00:41:13;;;;;;;7.50;6.80;;;;;;;12.70;100.00;99423.09;1696949;82;21051;-68
2022/09/13 00:43:48;;;;;;;8.25;6.65;;;;;;;12.70;100.00;99419.09;1697964;84;21088;-67
2022/09/13 00:46:34;;;;;;;9.10;7.40;;;;;;;12.71;100.00;99426.86;1701211;83;21043;-68
2022/09/13 00:49:18;;;;;;;8.00;7.25;;;;;;;12.71;100.00;99430.06;1677955;83;21023;-70
2022/09/13 00:51:50;;;;;;;8.43;7.20;;;;;;;12.66;100.00;99424.06;1725570;82;21150;-69
2022/09/13 00:54:20;;;;;;;6.90;6.20;;;;;;;12.65;100.00;99423.23;1722521;83;20999;-69
2022/09/13 00:56:51;;;;;;;7.58;6.60;;;;;;;12.64;100.00;99421.61;1718235;83;20999;-70
2022/09/13 00:59:25;;;;;;;10.00;8.45;;;;;;;12.64;100.00;99416.27;1719892;82;20988;-70
2022/09/13 01:01:55;;;;;;;7.67;6.58;;;;;;;12.63;100.00;99413.28;1717922;82;21023;-69
2022/09/13 01:04:25;;;;;;;7.53;6.40;;;;;;;12.63;100.00;99409.27;1716994;83;21529;-69
2022/09/13 01:06:56;;;;;;;8.65;7.17;;;;;;;12.62;100.00;99417.51;1718878;83;21031;-68
2022/09/13 01:09:23;;;;;;;8.58;7.05;;;;;;;12.61;100.00;99413.22;1717574;83;20984;-69
2022/09/13 01:12:07;;;;;;;8.98;7.50;;;;;;;12.58;100.00;99409.15;1715365;82;21058;-69
2022/09/13 01:14:33;;;;;;;7.62;6.92;;;;;;;12.57;100.00;99414.72;1705993;82;21539;-68
2022/09/13 01:17:00;;;;;;;8.63;7.65;;;;;;;12.57;100.00;99413.38;1715780;82;21015;-69
2022/09/13 01:19:26;;;;;;;;;;;;;;;12.56;100.00;99405.05;1723372;83;21527;-69
2022/09/13 01:22:20;;;;;;;11.90;8.50;;;;;;;12.57;100.00;99410.17;1727780;83;20427;-69
2022/09/13 01:25:09;;;;;;;7.62;6.85;;;;;;;12.55;100.00;99414.93;1723273;83;21070;-69
2022/09/13 01:28:01;;;;;;;7.75;6.92;;;;;;;12.56;100.00;99415.21;1678376;83;21015;-68
2022/09/13 01:31:03;;;;;;;9.60;8.63;;;;;;;12.55;100.00;99412.26;1687946;84;21536;-68
2022/09/13 01:34:06;;;;;;;9.55;8.55;;;;;;;12.54;100.00;99408.47;1695658;84;20988;-68
2022/09/13 01:37:02;;;;;;;9.50;8.45;;;;;;;12.56;100.00;99410.39;1698815;83;21500;-70
2022/09/13 01:39:37;;;;;;;8.63;7.83;;;;;;;12.58;100.00;99411.83;1683898;84;21046;-67
2022/09/13 01:42:33;;;;;;;9.73;8.73;;;;;;;12.61;100.00;99412.69;1673523;82;21027;-68
2022/09/13 01:45:20;;;;;;;10.80;8.63;;;;;;;12.64;100.00;99411.45;1651733;85;21046;-69
2022/09/13 01:48:02;;;;;;;11.70;9.65;;;;;;;12.64;100.00;99405.57;1670073;85;21052;-69
2022/09/13 01:50:40;;;;;;;10.50;8.48;;;;;;;12.64;100.00;99409.58;1652607;86;21194;-68
2022/09/13 01:53:24;;;;;;;10.72;9.00;;;;;;;12.64;100.00;99412.25;1677698;84;21059;-68
2022/09/13 01:56:01;;;;;;;9.70;8.90;;;;;;;12.63;100.00;99409.27;1656864;85;21505;-68
2022/09/13 01:58:45;;;;;;;9.33;8.53;;;;;;;12.61;100.00;99413.22;1667728;82;21007;-68
2022/09/13 02:01:20;;;;;;;9.53;8.53;;;;;;;12.60;100.00;99416.92;1669974;84;20983;-68
2022/09/13 02:04:12;;;;;;;13.45;8.03;;;;;;;12.60;100.00;99408.90;1668803;84;21042;-68
2022/09/13 02:06:51;;;;;;;10.05;9.10;;;;;;;12.60;100.00;99411.08;1643678;85;21110;-68
2022/09/13 02:09:23;;;;;;;10.48;9.43;;;;;;;12.59;100.00;99415.30;1665708;84;21062;-68
2022/09/13 02:11:58;;;;;;;15.05;10.55;;;;;;;12.57;100.00;99416.86;1674307;85;21091;-69
2022/09/13 02:14:30;;;;;;;11.03;9.93;;;;;;;12.56;100.00;99413.87;1646145;85;21526;-68
2022/09/13 02:17:05;;;;;;;10.60;9.63;;;;;;;12.57;100.00;99415.52;1657796;85;21517;-68
2022/09/13 02:19:46;;;;;;;12.47;9.83;;;;;;;12.58;100.00;99414.50;1655716;85;21051;-68
2022/09/13 02:22:19;;;;;;;11.33;10.25;;;;;;;12.55;100.00;99413.59;1667099;85;21159;-69
2022/09/13 02:24:50;;;;;;;10.28;9.33;;;;;;;12.53;100.00;99411.67;1678660;84;21015;-68
2022/09/13 02:27:22;;;;;;;11.40;10.13;;;;;;;12.52;100.00;99411.36;1699636;83;21540;-68
2022/09/13 02:29:52;;;;;;;11.40;10.20;;;;;;;12.52;100.00;99415.37;1694519;84;20992;-69
2022/09/13 02:32:32;;;;;;;11.57;10.40;;;;;;;12.53;100.00;99415.67;1695238;83;20988;-68
2022/09/13 02:35:12;;;;;;;9.25;8.48;;;;;;;12.52;100.00;99412.69;1697411;84;21461;-68
2022/09/13 02:37:41;;;;;;;10.30;9.30;;;;;;;12.50;100.00;99410.77;1703056;83;20991;-68
2022/09/13 02:40:14;;;;;;;10.75;9.80;;;;;;;12.49;100.00;99410.98;1693439;84;21027;-70
2022/09/13 02:42:46;;;;;;;10.35;9.40;;;;;;;12.50;100.00;99410.77;1703598;83;21021;-68
2022/09/13 02:45:17;;;;;;;9.03;8.23;;;;;;;12.50;100.00;99411.30;1689568;83;20995;-69
2022/09/13 02:48:02;;;;;;;9.15;8.30;;;;;;;12.51;100.00;99412.91;1692438;83;21126;-68
2022/09/13 02:50:54;;;;;;;9.03;8.18;;;;;;;12.51;100.00;99404.39;1704383;83;21094;-69
2022/09/13 02:53:50;;;;;;;9.00;8.13;;;;;;;12.48;100.00;99402.16;1685175;84;21593;-70
2022/09/13 02:56:44;;;;;;;8.70;8.00;;;;;;;12.45;100.00;99402.59;1694358;83;21023;-68
2022/09/13 02:59:19;;;;;;;7.95;7.22;;;;;;;12.41;100.00;99404.92;1655372;86;21003;-69
2022/09/13 03:02:02;;;;;;;8.25;7.55;;;;;;;12.42;100.00;99399.86;1666101;85;21011;-69
2022/09/13 03:04:29;;;;;;;8.95;8.18;;;;;;;12.40;100.00;99402.47;1684838;83;21479;-68
2022/09/13 03:06:55;;;;;;;6.80;6.33;;;;;;;12.39;100.00;99398.95;1714522;83;21090;-68
2022/09/13 03:09:22;;;;;;;7.03;6.53;;;;;;;12.39;100.00;99394.95;1688843;83;21435;-67
2022/09/13 03:12:14;;;;;;;7.33;6.78;;;;;;;12.39;100.00;99397.63;1710983;82;21113;-68
2022/09/13 03:14:55;;;;;;;6.95;6.45;;;;;;;12.41;100.00;99396.91;1692843;83;21036;-68
2022/09/13 03:17:57;;;;;;;6.95;6.35;;;;;;;12.40;100.00;99401.13;1715074;83;21473;-68
2022/09/13 03:20:50;;;;;;;7.33;6.72;;;;;;;12.38;100.00;99408.56;1701509;83;21695;-68
2022/09/13 03:24:03;;;;;;;8.63;7.60;;;;;;;12.37;100.00;99409.59;1702581;83;21046;-68
2022/09/13 03:26:47;;;;;;;8.88;7.97;;;;;;;12.36;100.00;99410.64;1705804;83;21121;-68
2022/09/13 03:29:30;;;;;;;8.33;7.62;;;;;;;12.35;100.00;99417.81;1702296;82;21080;-68
2022/09/13 03:32:28;;;;;;;10.48;7.87;;;;;;;12.36;100.00;99415.98;1707690;83;21613;-68
2022/09/13 03:35:06;;;;;;;8.15;7.53;;;;;;;12.36;100.00;99418.66;1702342;82;21526;-67
2022/09/13 03:37:49;;;;;;;9.18;8.18;;;;;;;12.34;100.00;99415.36;1709194;83;22135;-67
2022/09/13 03:40:30;;;;;;;7.95;7.33;;;;;;;12.32;100.00;99414.27;1703596;83;21010;-68
2022/09/13 03:43:08;;;;;;;8.98;8.08;;;;;;;12.30;100.00;99414.17;1701624;82;21102;-69
2022/09/13 03:45:40;;;;;;;7.45;6.87;;;;;;;12.27;100.00;99416.26;1700177;83;20971;-69
2022/09/13 03:48:08;;;;;;;11.45;10.25;;;;;;;12.26;100.00;99415.14;1686044;82;20981;-68
2022/09/13 03:50:36;;;;;;;8.28;7.60;;;;;;;12.26;100.00;99415.14;1706943;83;21010;-69
2022/09/13 03:53:08;;;;;;;7.60;7.00;;;;;;;12.21;100.00;99413.14;1714715;83;20998;-68
2022/09/13 03:55:42;;;;;;;12.13;10.32;;;;;;;12.14;100.00;99424.41;1690907;83;20995;-67
2022/09/13 03:58:15;;;;;;;14.33;12.58;;;;;;;12.12;100.00;99419.81;1706284;83;21122;-67
2022/09/13 04:00:42;;;;;;;16.30;14.53;;;;;;;12.11;100.00;99424.88;1712882;83;21596;-68
2022/09/13 04:03:08;;;;;;;13.50;10.72;;;;;;;12.12;100.00;99425.16;1717278;83;21010;-68
2022/09/13 04:05:35;;;;;;;13.72;11.55;;;;;;;12.14;100.00;99425.75;1712579;83;21037;-68
2022/09/13 04:08:07;;;;;;;12.60;11.10;;;;;;;12.15;100.00;99426.56;1716613;83;21549;-69
2022/09/13 04:10:36;;;;;;;11.73;10.30;;;;;;;12.14;100.00;99431.09;1707581;82;21027;-69
2022/09/13 04:13:03;;;;;;;11.28;9.95;;;;;;;12.13;100.00;99426.80;1706884;83;21062;-68
2022/09/13 04:15:31;;;;;;;15.08;10.93;;;;;;;12.13;100.00;99430.81;1700386;83;21038;-71
2022/09/13 04:17:57;;;;;;;13.03;11.18;;;;;;;12.15;100.00;99428.73;1716868;82;21514;-69
2022/09/13 04:20:24;;;;;;;15.43;10.18;;;;;;;12.17;100.00;99427.98;1713272;83;21046;-66
2022/09/13 04:22:53;;;;;;;16.55;9.30;;;;;;;12.17;100.00;99434.67;1713472;82;21348;-67
2022/09/13 04:25:21;;;;;;;11.60;10.50;;;;;;;12.14;100.00;99428.42;1709120;83;21055;-68
2022/09/13 04:27:50;;;;;;;12.18;9.50;;;;;;;12.11;100.00;99432.89;1705338;83;21039;-68
2022/09/13 04:30:16;;;;;;;18.07;13.05;;;;;;;12.06;100.00;99429.52;1705711;82;21078;-68
2022/09/13 04:32:43;;;;;;;;;;;;;;;12.08;100.00;99438.66;1710151;83;21035;-66
2022/09/13 04:36:11;;;;;;;18.70;12.03;;;;;;;12.12;100.00;99432.36;1803439;78;22223;-67
2022/09/13 04:38:38;;;;;;;19.35;12.28;;;;;;;12.04;100.00;99438.28;1735651;81;21010;-68
2022/09/13 04:41:04;;;;;;;14.03;11.18;;;;;;;12.01;100.00;99440.05;1732860;81;21069;-72
2022/09/13 04:43:31;;;;;;;13.85;10.93;;;;;;;11.98;100.00;99438.33;1744377;81;21053;-72
2022/09/13 04:46:00;;;;;;;20.68;11.70;;;;;;;11.98;100.00;99438.33;1746560;81;21015;-72
2022/09/13 04:48:26;;;;;;;15.65;10.48;;;;;;;11.97;100.00;99437.52;1728399;81;20995;-73
2022/09/13 04:50:52;;;;;;;15.70;11.08;;;;;;;11.98;100.00;99441.00;1709038;81;21530;-72
2022/09/13 04:53:18;;;;;;;14.98;10.75;;;;;;;11.99;100.00;99443.45;1719506;81;21144;-72
2022/09/13 04:55:44;;;;;;;13.78;10.35;;;;;;;12.00;100.00;99441.62;1732764;81;21084;-74
2022/09/13 04:58:10;;;;;;;11.60;10.30;;;;;;;11.92;100.00;99436.54;1731067;80;21076;-75
2022/09/13 05:00:37;;;;;;;14.68;10.95;;;;;;;11.95;100.00;99445.45;1728923;81;20966;-73
2022/09/13 05:03:04;;;;;;;10.78;9.80;;;;;;;11.95;100.00;99446.80;1716246;82;21022;-72
2022/09/13 05:05:31;;;;;;;10.10;9.20;;;;;;;11.95;100.00;99440.12;1714124;82;20994;-74
2022/09/13 05:07:58;;;;;;;10.05;9.15;;;;;;;11.92;100.00;99449.89;1687835;84;21199;-81
2022/09/13 05:10:25;;;;;;;10.05;9.15;;;;;;;11.89;100.00;99449.80;1712956;83;21537;-69
2022/09/13 05:12:52;;;;;;;10.48;9.33;;;;;;;11.86;100.00;99449.69;1709867;83;21064;-72
2022/09/13 05:15:18;;;;;;;12.30;9.78;;;;;;;11.84;100.00;99453.09;1707257;83;20999;-71
2022/09/13 05:17:44;;;;;;;13.45;12.05;;;;;;;11.80;100.00;99453.23;1693843;83;21071;-69
2022/09/13 05:20:10;;;;;;;12.90;11.63;;;;;;;11.78;100.00;99453.98;1692749;82;21089;-73
2022/09/13 05:22:36;;;;;;;12.37;10.88;;;;;;;11.77;100.00;99452.36;1693737;84;21116;-70
2022/09/13 05:25:03;;;;;;;14.43;12.47;;;;;;;11.76;100.00;99454.72;1710762;81;21041;-70
2022/09/13 05:27:30;;;;;;;12.53;10.25;;;;;;;11.76;100.00;99456.58;1732968;81;21069;-71
2022/09/13 05:29:56;;;;;;;12.05;10.90;;;;;;;11.72;100.00;99454.86;1734494;81;20954;-70
2022/09/13 05:32:22;;;;;;;11.95;10.80;;;;;;;11.69;100.00;99458.76;1730690;82;21058;-73
2022/09/13 05:34:48;;;;;;;12.93;11.63;;;;;;;11.65;100.00;99457.56;1700347;83;21030;-72
2022/09/13 05:37:14;;;;;;;15.60;11.70;;;;;;;11.62;100.00;99452.67;1710663;82;21069;-70
2022/09/13 05:39:41;;;;;;;26.05;12.33;;;;;;;11.62;100.00;99457.17;1716244;82;21474;-72
2022/09/13 05:42:07;;;;;;;16.55;12.10;;;;;;;11.63;100.00;99460.97;1703706;82;21543;-70
2022/09/13 05:44:33;;;;;;;12.63;10.80;;;;;;;11.62;100.00;99464.69;1709532;82;21070;-72
2022/09/13 05:46:59;;;;;;;12.30;9.93;;;;;;;11.60;100.00;99465.92;1728330;82;21082;-69
2022/09/13 05:49:26;;;;;;;15.83;10.55;;;;;;;11.60;100.00;99469.92;1713165;82;21128;-71
2022/09/13 05:51:52;;;;;;;13.20;11.18;;;;;;;11.61;100.00;99479.05;1724866;82;21582;-72
2022/09/13 05:54:18;;;;;;;11.18;9.98;;;;;;;11.63;100.00;99484.18;1701118;82;21042;-70
2022/09/13 05:56:45;;;;;;;13.20;11.88;;;;;;;11.63;100.00;99478.84;1703148;82;21174;-70
2022/09/13 05:59:13;;;;;;;14.90;11.43;;;;;;;11.62;100.00;99482.53;1706320;83;21230;-71
2022/09/13 06:01:39;;;;;;;11.80;10.50;;;;;;;11.65;100.00;99480.78;1755083;80;21459;-69
2022/09/13 06:04:06;;;;;;;9.05;8.30;;;;;;;11.61;100.00;99481.72;1752070;80;20970;-73
2022/09/13 06:06:34;;;;;;;14.03;10.60;;;;;;;11.56;100.00;99490.08;1759718;80;21053;-75
2022/09/13 06:09:00;;;;;;;11.83;10.72;;;;;;;11.52;100.00;99492.88;1732546;80;21025;-75
2022/09/13 06:11:27;;;;;;;12.63;11.38;;;;;;;11.47;100.00;99498.34;1700339;83;21052;-74
2022/09/13 06:13:53;;;;;;;12.10;11.00;;;;;;;11.45;100.00;99496.41;1674952;84;21097;-77
2022/09/13 06:16:20;;;;;;;13.18;11.85;;;;;;;11.45;100.00;99496.91;1652468;84;21018;-75
2022/09/13 06:18:46;;;;;;;12.30;11.08;;;;;;;11.45;100.00;99495.08;1699781;83;21105;-71
2022/09/13 06:21:18;;;;;;;10.03;9.08;;;;;;;11.46;100.00;99497.22;1703195;82;21001;-77
2022/09/13 06:23:47;;;;;;;12.85;10.63;;;;;;;11.46;100.00;99502.03;1717112;83;21254;-74
2022/09/13 06:26:17;;;;;;;11.63;10.48;;;;;;;11.44;100.00;99500.10;1694943;83;21552;-73
2022/09/13 06:28:49;;;;;;;15.85;10.58;;;;;;;11.43;100.00;99500.31;1703308;84;21121;-73
2022/09/13 06:31:18;;;;;;;10.95;9.95;;;;;;;11.46;100.00;99507.38;1691547;84;21077;-73
2022/09/13 06:33:44;;;;;;;10.85;9.83;;;;;;;11.50;100.00;99507.24;1695557;84;21670;-72
2022/09/13 06:36:16;;;;;;;11.25;9.85;;;;;;;11.55;100.00;99511.14;1695458;83;21227;-73
2022/09/13 06:38:50;;;;;;;9.88;8.95;;;;;;;11.58;100.00;99507.50;1704926;84;21156;-73
2022/09/13 06:41:20;;;;;;;9.28;8.35;;;;;;;11.61;100.00;99504.94;1692223;83;21847;-72
2022/09/13 06:43:56;;;;;;;13.55;9.73;;;;;;;11.60;100.00;99508.63;1692189;82;21002;-72
2022/09/13 06:46:24;;;;;;;10.10;9.18;;;;;;;11.62;100.00;99507.39;1717654;82;21033;-71
2022/09/13 06:48:51;;;;;;;10.50;8.38;;;;;;;11.66;100.00;99507.78;1715854;82;21060;-71
2022/09/13 06:51:21;;;;;;;12.15;9.70;;;;;;;11.65;100.00;99509.61;1726923;82;21145;-71
2022/09/13 06:53:50;;;;;;;10.40;9.35;;;;;;;11.65;100.00;99506.14;1693385;82;21013;-72
2022/09/13 06:56:27;;;;;;;10.50;9.43;;;;;;;11.67;100.00;99508.88;1726584;82;21063;-73
2022/09/13 06:59:01;;;;;;;10.23;9.23;;;;;;;11.70;100.00;99504.98;1722950;82;21117;-74
2022/09/13 07:01:35;;;;;;;9.73;8.83;;;;;;;11.75;100.00;99511.80;1688864;82;21712;-72
2022/09/13 07:04:08;;;;;;;11.63;10.43;;;;;;;11.77;100.00;99513.77;1727111;82;21085;-72
2022/09/13 07:06:39;;;;;;;11.90;10.70;;;;;;;11.81;100.00;99511.45;1721630;82;21923;-72
2022/09/13 07:09:09;;;;;;;11.22;9.98;;;;;;;11.83;100.00;99519.56;1718480;82;21029;-74
2022/09/13 07:11:39;;;;;;;11.15;10.10;;;;;;;11.86;100.00;99518.30;1683305;83;21138;-73
2022/09/13 07:14:06;;;;;;;11.68;10.25;;;;;;;11.90;100.00;99522.73;1708252;82;21552;-70
2022/09/13 07:16:36;;;;;;;13.15;10.65;;;;;;;11.90;100.00;99525.40;1696320;82;21540;-73
2022/09/13 07:19:07;;;;;;;11.70;10.00;;;;;;;11.92;100.00;99527.34;1699674;83;21063;-72
2022/09/13 07:21:34;;;;;;;14.35;9.93;;;;;;;11.91;100.00;99529.20;1710260;83;20998;-74
2022/09/13 07:24:01;;;;;;;10.58;9.20;;;;;;;11.91;100.00;99527.05;1708617;83;21097;-70
2022/09/13 07:26:27;;;;;;;18.73;13.03;;;;;;;11.91;100.00;99536.40;1670241;84;21504;-71
2022/09/13 07:28:57;;;;;;;14.18;10.98;;;;;;;11.88;100.00;99535.77;1705825;83;21113;-72
2022/09/13 07:31:31;;;;;;;13.78;11.50;;;;;;;11.88;100.00;99531.77;1716418;83;20939;-69
2022/09/13 07:34:01;;;;;;;12.55;11.30;;;;;;;11.91;100.00;99537.73;1714513;83;21041;-71
2022/09/13 07:36:30;;;;;;;11.85;10.25;;;;;;;11.93;100.00;99535.66;1704913;83;21550;-71
2022/09/13 07:38:57;;;;;;;11.15;10.05;;;;;;;11.94;100.00;99530.61;1688788;84;21319;-70
2022/09/13 07:41:27;;;;;;;9.73;8.73;;;;;;;11.97;100.00;99533.66;1720979;83;21029;-72
2022/09/13 07:43:54;;;;;;;11.95;10.35;;;;;;;11.98;100.00;99532.64;1724786;83;21045;-69
2022/09/13 07:46:24;;;;;;;18.57;11.95;;;;;;;11.95;100.00;99529.58;1706560;83;21116;-72
2022/09/13 07:48:56;;;;;;;11.60;10.35;;;;;;;11.94;100.00;99531.94;1703393;83;20987;-70
2022/09/13 07:51:26;;;;;;;11.93;10.08;;;;;;;11.95;100.00;99521.05;1715899;82;21086;-71
2022/09/13 07:53:57;;;;;;;10.85;9.75;;;;;;;11.96;100.00;99519.19;1722084;83;21007;-73
2022/09/13 07:56:28;;;;;;;10.08;9.13;;;;;;;11.96;100.00;99525.86;1722719;83;21181;-72
2022/09/13 07:58:55;;;;;;;17.15;10.98;;;;;;;11.93;100.00;99516.97;1708475;83;21117;-70
2022/09/13 08:01:24;;;;;;;14.38;10.75;;;;;;;11.93;100.00;99519.11;1680807;84;21017;-72
2022/09/13 08:03:57;;;;;;;11.57;10.32;;;;;;;11.97;100.00;99525.65;1727880;83;21042;-72
2022/09/13 08:06:26;;;;;;;11.00;9.05;;;;;;;12.00;100.00;99516.41;1713515;83;21596;-70
2022/09/13 08:08:53;;;;;;;12.68;9.58;;;;;;;12.00;100.00;99528.42;1724414;83;21101;-72
2022/09/13 08:11:32;;;;;;;11.85;10.65;;;;;;;12.01;100.00;99518.02;1723043;83;21002;-71
2022/09/13 08:14:01;;;;;;;11.90;10.72;;;;;;;12.01;100.00;99522.03;1725626;83;21081;-71
2022/09/13 08:16:29;;;;;;;10.90;9.58;;;;;;;12.05;100.00;99517.88;1717846;83;20987;-72
2022/09/13 08:18:59;;;;;;;12.85;9.73;;;;;;;12.08;100.00;99519.60;1714529;83;21090;-71
2022/09/13 08:21:28;;;;;;;11.88;9.80;;;;;;;12.08;100.00;99518.27;1707756;82;21093;-72
2022/09/13 08:23:58;;;;;;;9.45;8.05;;;;;;;12.08;100.00;99517.45;1680241;84;21098;-70
2022/09/13 08:26:24;;;;;;;11.45;10.18;;;;;;;12.04;100.00;99521.61;1713275;83;21469;-71
2022/09/13 08:28:54;;;;;;;10.53;9.63;;;;;;;12.02;100.00;99517.00;1716093;83;21082;-69
2022/09/13 08:31:21;;;;;;;11.53;10.32;;;;;;;12.00;100.00;99520.41;1705212;83;21125;-71
2022/09/13 08:33:48;;;;;;;10.15;9.25;;;;;;;11.99;100.00;99516.90;1690905;84;21064;-70
2022/09/13 08:36:15;;;;;;;10.55;9.40;;;;;;;12.01;100.00;99515.35;1719416;82;21589;-69
2022/09/13 08:38:58;;;;;;;11.30;10.15;;;;;;;12.05;100.00;99510.70;1729081;82;21049;-72
2022/09/13 08:41:43;;;;;;;10.93;9.73;;;;;;;12.07;100.00;99514.47;1716910;82;20998;-71
2022/09/13 08:44:25;;;;;;;10.95;9.88;;;;;;;12.08;100.00;99510.78;1726172;82;21038;-71
2022/09/13 08:47:12;;;;;;;9.95;8.95;;;;;;;12.10;100.00;99511.38;1722507;82;21003;-71
2022/09/13 08:49:47;;;;;;;11.68;9.13;;;;;;;12.14;100.00;99513.09;1712752;82;21036;-70
2022/09/13 08:52:34;;;;;;;8.58;7.78;;;;;;;12.16;100.00;99515.84;1692942;84;21134;-70
2022/09/13 08:55:06;;;;;;;10.38;9.40;;;;;;;12.18;100.00;99507.61;1674320;85;20990;-70
2022/09/13 08:57:43;;;;;;;10.80;9.85;;;;;;;12.22;100.00;99503.45;1682186;84;21061;-76
2022/09/13 09:00:18;;;;;;;10.15;9.08;;;;;;;12.25;100.00;99505.17;1661696;85;21060;-73
2022/09/13 09:03:29;;;;;;;11.12;8.60;;;;;;;12.32;100.00;99500.28;1662668;86;21077;-70
2022/09/13 09:05:55;;;;;;;12.50;9.55;;;;;;;12.35;100.00;99501.19;1695586;84;21021;-72
2022/09/13 09:08:30;;;;;;;;;;;;;;;12.37;100.00;99493.23;1698925;84;21081;-75
2022/09/13 09:11:10;;;;;;;9.00;7.80;;;;;;;12.35;100.00;99486.48;1701938;84;20115;-69
2022/09/13 09:13:44;;;;;;;9.58;8.60;;;;;;;12.30;100.00;99492.51;1657981;84;21581;-69
2022/09/13 09:16:38;;;;;;;9.93;8.85;;;;;;;12.31;100.00;99496.80;1669590;84;21523;-72
2022/09/13 09:19:25;;;;;;;12.07;9.15;;;;;;;12.34;100.00;99492.86;1657733;85;21498;-72
2022/09/13 09:21:52;;;;;;;10.70;9.70;;;;;;;12.31;100.00;99479.95;1666845;84;21059;-70
2022/09/13 09:24:24;;;;;;;10.38;9.48;;;;;;;12.38;100.00;99492.73;1665572;84;21037;-70
2022/09/13 09:26:57;;;;;;;10.03;9.03;;;;;;;12.36;100.00;99500.16;1667712;84;20987;-71
2022/09/13 09:29:31;;;;;;;9.65;8.78;;;;;;;12.34;100.00;99490.19;1673271;85;21106;-74
2022/09/13 09:32:21;;;;;;;8.78;8.03;;;;;;;12.36;100.00;99492.14;1673857;84;21519;-70
2022/09/13 09:34:56;;;;;;;7.70;6.65;;;;;;;12.38;100.00;99492.73;1612327;86;21069;-70
2022/09/13 09:37:25;;;;;;;10.65;7.72;;;;;;;12.37;100.00;99494.57;1687186;84;20986;-73
2022/09/13 09:39:54;;;;;;;8.40;7.15;;;;;;;12.35;100.00;99493.98;1692547;84;21060;-70
2022/09/13 09:42:28;;;;;;;9.45;8.20;;;;;;;12.34;98.66;99499.54;1688300;84;21581;-71
2022/09/13 09:45:05;;;;;;;11.65;8.58;;;;;;;12.29;99.05;99498.87;1694359;84;21545;-72
2022/09/13 09:47:45;;;;;;;10.43;9.43;;;;;;;12.28;99.43;99499.90;1685122;84;21050;-71
2022/09/13 09:50:17;;;;;;;8.55;7.50;;;;;;;12.29;99.44;99498.87;1715698;83;21042;-80
2022/09/13 09:53:07;;;;;;;9.48;8.15;;;;;;;12.26;98.70;99497.97;1715600;83;21022;-80
2022/09/13 09:55:59;;;;;;;12.85;10.05;;;;;;;12.25;98.91;99496.34;1720119;83;21314;-83
2022/09/13 09:58:44;;;;;;;7.20;6.05;;;;;;;12.24;99.16;99498.21;1731336;82;21009;-80
2022/09/13 10:01:27;;;;;;;8.73;7.92;;;;;;;12.16;97.25;99499.81;1724888;83;21126;-81
2022/09/13 10:04:15;;;;;;;9.78;7.28;;;;;;;12.15;97.00;99502.69;1707147;83;21087;-81
2022/09/13 10:06:42;;;;;;;9.28;7.20;;;;;;;12.09;97.06;99504.38;1728774;82;21545;-82
2022/09/13 10:09:16;;;;;;;9.13;6.97;;;;;;;12.03;96.50;99503.93;1690901;82;21630;-81
2022/09/13 10:11:55;;;;;;;7.33;6.67;;;;;;;12.00;96.38;99506.53;1725335;82;21049;-83
2022/09/13 10:14:39;;;;;;;7.90;6.55;;;;;;;12.01;97.01;99507.34;1720231;82;21073;-80
2022/09/13 10:17:25;;;;;;;7.67;6.65;;;;;;;12.03;97.50;99505.27;1722288;82;20990;-84
2022/09/13 10:20:00;;;;;;;11.33;7.62;;;;;;;12.03;97.03;99499.39;1719742;82;21021;-80
2022/09/13 10:22:31;;;;;;;9.18;6.33;;;;;;;12.03;96.82;99507.41;1717779;82;21053;-87
2022/09/13 10:25:22;;;;;;;6.33;5.70;;;;;;;12.07;96.72;99504.63;1720327;82;21664;-86
2022/09/13 10:27:53;;;;;;;6.45;5.80;;;;;;;12.13;96.19;99506.10;1699260;82;21070;-83
2022/09/13 10:30:47;;;;;;;7.53;6.08;;;;;;;12.16;95.41;99511.83;1716271;82;20998;-83
2022/09/13 10:33:33;;;;;;;6.47;5.10;;;;;;;12.21;95.92;99512.52;1716021;82;20971;-80
2022/09/13 10:36:13;;;;;;;6.62;6.03;;;;;;;12.22;95.22;99511.47;1676807;84;21193;-84
2022/09/13 10:38:42;;;;;;;7.80;6.28;;;;;;;12.30;95.62;99510.38;1671956;84;21151;-81
2022/09/13 10:41:14;;;;;;;6.83;6.15;;;;;;;12.36;95.84;99513.00;1675599;85;21329;-82
2022/09/13 10:43:41;;;;;;;6.40;5.80;;;;;;;12.42;95.57;99508.63;1673502;84;21390;-82
2022/09/13 10:46:12;;;;;;;5.80;5.30;;;;;;;12.46;95.06;99513.30;1682058;84;21029;-80
2022/09/13 10:48:57;;;;;;;5.95;5.40;;;;;;;12.52;94.64;99506.78;1718799;83;21140;-80
2022/09/13 10:51:30;;;;;;;6.45;5.08;;;;;;;12.55;93.58;99505.82;1710646;83;21214;-83
2022/09/13 10:54:24;;;;;;;5.85;5.35;;;;;;;12.57;92.29;99506.41;1714851;83;21096;-83
2022/09/13 10:56:51;;;;;;;5.67;5.17;;;;;;;12.57;92.01;99507.75;1718882;83;20978;-80
2022/09/13 10:59:28;;;;;;;6.70;5.80;;;;;;;12.60;91.56;99505.14;1711147;83;21193;-81
2022/09/13 11:02:10;;;;;;;6.28;5.75;;;;;;;12.59;91.76;99502.99;1721304;83;21218;-81
2022/09/13 11:05:00;;;;;;;7.05;5.85;;;;;;;12.59;92.31;99503.52;1705508;83;21123;-80
2022/09/13 11:08:02;;;;;;;6.62;6.00;;;;;;;12.58;92.57;99502.72;1705339;83;21404;-80
2022/09/13 11:11:07;;;;;;;6.22;5.70;;;;;;;12.59;93.09;99507.00;1709729;83;21159;-82
2022/09/13 11:14:24;;;;;;;5.60;5.17;;;;;;;12.60;92.69;99508.66;1715752;83;21069;-82
2022/09/13 11:17:08;;;;;;;5.83;5.35;;;;;;;12.56;91.99;99506.63;1719645;83;21166;-84
2022/09/13 11:20:19;;;;;;;6.58;5.83;;;;;;;12.48;92.90;99510.41;1712796;82;21052;-80
2022/09/13 11:23:01;;;;;;;7.92;5.67;;;;;;;12.47;93.54;99514.14;1720763;82;21019;-85
2022/09/13 11:25:55;;;;;;;6.40;5.60;;;;;;;12.44;93.72;99505.21;1713228;82;21090;-72
2022/09/13 11:29:01;;;;;;;10.50;6.07;;;;;;;12.45;94.28;99509.50;1724521;82;21343;-78
2022/09/13 11:31:50;;;;;;;8.50;6.25;;;;;;;12.45;95.09;99499.65;1722398;82;21029;-81
2022/09/13 11:34:50;;;;;;;9.38;6.62;;;;;;;12.45;95.84;99500.98;1718453;82;21583;-81
2022/09/13 11:37:46;;;;;;;7.83;5.60;;;;;;;12.48;95.75;99502.91;1719927;82;21006;-81
2022/09/13 11:40:37;;;;;;;8.70;6.60;;;;;;;12.51;95.55;99503.30;1687386;82;21529;-81
2022/09/13 11:43:21;;;;;;;7.65;6.03;;;;;;;12.53;95.59;99502.55;1719014;82;21097;-85
2022/09/13 11:46:11;;;;;;;6.75;5.97;;;;;;;12.53;95.81;99509.23;1734746;82;21076;-82
2022/09/13 11:48:46;;;;;;;7.08;6.08;;;;;;;12.56;96.29;99513.31;1714423;82;21075;-82
2022/09/13 11:51:39;;;;;;;11.22;6.53;;;;;;;12.50;96.81;99512.34;1671780;84;21004;-78
2022/09/13 11:54:35;;;;;;;6.65;6.05;;;;;;;12.48;97.36;99510.41;1677451;84;21018;-81
2022/09/13 11:57:07;;;;;;;7.17;6.65;;;;;;;12.43;97.97;99508.91;1674531;84;21494;-81
2022/09/13 11:59:53;;;;;;;6.85;6.35;;;;;;;12.38;98.54;99508.77;1686562;84;20993;-81